Time;durP1;ratioP1;P1;durP2;ratioP2;P2;SDS_P1;SDS_P2;PMS_P1;PMS_P2;Temp;Humidity;BMP_temperature;BMP_pressure;BME280_temperature;BME280_humidity;BME280_pressure;Samples;Min_cycle;Max_cycle;Signal;HPM_P1;HPM_P2
2021/01/25 00:00:21;;;;;;;3.58;2.40;;;;;;;0.50;56.98;99363.50;7967685;28;20037;-65
2021/01/25 00:04:12;;;;;;;3.60;2.40;;;;;;;0.53;56.43;99374.50;7984153;28;20418;-65
2021/01/25 00:08:03;;;;;;;3.97;2.42;;;;;;;0.53;56.83;99371.94;7969469;28;20609;-64
2021/01/25 00:11:54;;;;;;;5.28;2.35;;;;;;;0.53;56.12;99371.94;7969186;28;20034;-66
2021/01/25 00:15:48;;;;;;;4.25;2.60;;;;;;;0.51;56.52;99372.88;7968021;28;20079;-66
2021/01/25 00:19:39;;;;;;;5.90;2.97;;;;;;;0.50;56.68;99373.81;7967082;28;20112;-65
2021/01/25 00:23:29;;;;;;;4.38;2.17;;;;;;;0.48;56.67;99371.31;7964767;28;20126;-64
2021/01/25 00:27:20;;;;;;;8.70;2.58;;;;;;;0.47;56.30;99358.44;7968158;28;20132;-64
2021/01/25 00:31:11;;;;;;;5.32;2.45;;;;;;;0.43;56.94;99362.94;7955394;28;20572;-64
2021/01/25 00:35:01;;;;;;;4.88;2.80;;;;;;;0.42;56.73;99370.78;7978783;28;20433;-65
2021/01/25 00:38:53;;;;;;;2.88;2.22;;;;;;;0.40;57.06;99373.41;7974145;28;20042;-64
2021/01/25 00:42:43;;;;;;;3.67;2.10;;;;;;;0.38;56.57;99375.22;7976107;28;20472;-65
2021/01/25 00:46:34;;;;;;;4.18;2.38;;;;;;;0.34;56.90;99365.94;7945860;28;20045;-64
2021/01/25 00:50:25;;;;;;;3.05;2.03;;;;;;;0.35;56.50;99370.22;7943606;28;20571;-64
2021/01/25 00:54:18;;;;;;;4.78;2.70;;;;;;;0.37;56.76;99377.91;7943505;28;20544;-64
2021/01/25 00:58:10;;;;;;;4.22;2.83;;;;;;;0.34;56.93;99386.63;7942769;28;20033;-64
2021/01/25 01:02:01;;;;;;;7.20;2.92;;;;;;;0.33;57.00;99378.97;7943741;28;20034;-65
2021/01/25 01:05:51;;;;;;;5.80;2.70;;;;;;;0.32;56.67;99382.44;7942715;28;20026;-66
2021/01/25 01:09:42;;;;;;;5.18;2.63;;;;;;;0.27;56.76;99369.75;7942517;28;20124;-66
2021/01/25 01:13:32;;;;;;;3.92;2.20;;;;;;;0.31;56.73;99375.59;7942834;28;20036;-65
2021/01/25 01:17:23;;;;;;;4.07;2.70;;;;;;;0.33;56.93;99378.97;7942388;28;20115;-65
2021/01/25 01:21:14;;;;;;;4.22;2.53;;;;;;;0.30;56.98;99373.94;7942704;28;20141;-65
2021/01/25 01:25:07;;;;;;;3.63;2.22;;;;;;;0.32;56.90;99375.53;7943133;28;20574;-65
2021/01/25 01:28:57;;;;;;;2.75;2.28;;;;;;;0.31;57.62;99373.00;7943009;28;20069;-65
2021/01/25 01:32:48;;;;;;;3.25;2.33;;;;;;;0.32;57.35;99375.53;7940484;28;20461;-65
2021/01/25 01:36:39;;;;;;;3.13;2.28;;;;;;;0.29;56.50;99374.84;7942313;28;20113;-65
2021/01/25 01:40:29;;;;;;;3.33;2.28;;;;;;;0.27;57.19;99371.50;7942624;28;20458;-65
2021/01/25 01:44:20;;;;;;;3.92;3.05;;;;;;;0.31;56.63;99379.03;7941611;28;20095;-64
2021/01/25 01:48:11;;;;;;;3.78;2.35;;;;;;;0.33;57.59;99377.22;7940659;28;20506;-64
2021/01/25 01:52:02;;;;;;;4.72;2.80;;;;;;;0.31;57.08;99376.44;7941822;28;20091;-65
2021/01/25 01:55:52;;;;;;;3.72;2.58;;;;;;;0.33;57.35;99381.53;7942824;28;20030;-64
2021/01/25 01:59:43;;;;;;;4.38;2.92;;;;;;;0.34;57.29;99384.03;7942539;28;20305;-64
2021/01/25 02:03:34;;;;;;;4.47;2.58;;;;;;;0.34;56.95;99372.88;7941157;28;20449;-64
2021/01/25 02:07:26;;;;;;;4.65;2.65;;;;;;;0.37;57.35;99383.91;7942485;28;20350;-64
2021/01/25 02:11:19;;;;;;;6.28;2.55;;;;;;;0.38;57.10;99384.75;7940929;28;20601;-66
2021/01/25 02:15:10;;;;;;;3.10;2.08;;;;;;;0.38;57.11;99390.72;7940949;28;20042;-66
2021/01/25 02:19:00;;;;;;;8.48;2.63;;;;;;;0.40;57.53;99388.09;7940783;28;20447;-64
2021/01/25 02:23:12;;;;;;;2.92;2.05;;;;;;;0.41;57.44;99382.84;7941284;28;20575;-67
2021/01/25 02:27:31;;;;;;;2.85;2.20;;;;;;;0.42;57.73;99394.03;7964329;28;20029;-65
2021/01/25 02:31:23;;;;;;;2.72;2.25;;;;;;;0.41;56.72;99388.03;7988872;28;20448;-64
2021/01/25 02:35:16;;;;;;;4.65;2.40;;;;;;;0.41;57.61;99388.03;7972232;28;20042;-66
2021/01/25 02:39:07;;;;;;;5.15;3.03;;;;;;;0.41;57.71;99382.84;7971758;28;20033;-66
2021/01/25 02:42:58;;;;;;;3.20;2.60;;;;;;;0.41;57.53;99384.59;7971474;28;20048;-66
2021/01/25 02:46:49;;;;;;;2.88;2.20;;;;;;;0.36;57.32;99382.22;7970132;28;20033;-64
2021/01/25 02:50:48;;;;;;;2.80;2.42;;;;;;;0.37;57.66;99389.06;7972487;28;20095;-65
2021/01/25 02:54:39;;;;;;;6.10;2.55;;;;;;;0.38;57.30;99392.50;7971260;28;20041;-65
2021/01/25 02:58:30;;;;;;;6.35;2.78;;;;;;;0.38;57.50;99395.09;7969311;28;20350;-64
2021/01/25 03:02:21;;;;;;;2.58;2.00;;;;;;;0.33;57.18;99389.28;7970807;28;20155;-66
2021/01/25 03:06:12;;;;;;;5.70;2.97;;;;;;;0.36;57.51;99391.72;7970963;28;20124;-64
2021/01/25 03:10:04;;;;;;;4.45;2.33;;;;;;;0.33;57.34;99392.72;7971067;28;20525;-66
2021/01/25 03:14:05;;;;;;;2.78;2.13;;;;;;;0.32;57.46;99396.19;7969829;28;20103;-67
2021/01/25 03:17:56;;;;;;;4.35;1.92;;;;;;;0.34;57.63;99396.13;7971496;28;20046;-66
2021/01/25 03:21:50;;;;;;;3.33;2.72;;;;;;;0.35;57.32;99401.22;7970908;28;20136;-65
2021/01/25 03:25:40;;;;;;;2.58;2.00;;;;;;;0.34;57.69;99401.31;7970338;28;20033;-64
2021/01/25 03:29:32;;;;;;;3.50;2.10;;;;;;;0.39;57.27;99412.22;7971070;28;20355;-65
2021/01/25 03:33:22;;;;;;;2.53;2.17;;;;;;;0.39;57.55;99417.41;7945698;28;20477;-65
2021/01/25 03:37:13;;;;;;;3.55;2.22;;;;;;;0.39;57.75;99427.72;7938456;28;20534;-66
2021/01/25 03:41:03;;;;;;;3.80;2.22;;;;;;;0.37;57.29;99416.66;7939552;28;20079;-66
2021/01/25 03:44:54;;;;;;;3.33;1.85;;;;;;;0.41;57.55;99428.50;7938516;28;20058;-66
2021/01/25 03:48:45;;;;;;;4.63;2.22;;;;;;;0.38;57.46;99418.34;7938141;28;20913;-66
2021/01/25 03:52:36;;;;;;;4.85;2.05;;;;;;;0.40;57.59;99419.91;7937873;28;20084;-66
2021/01/25 03:56:26;;;;;;;3.30;1.92;;;;;;;0.45;57.42;99427.47;7938769;28;20376;-67
2021/01/25 04:00:17;;;;;;;3.25;2.10;;;;;;;0.46;57.53;99426.56;7938069;28;20122;-66
2021/01/25 04:04:08;;;;;;;3.70;2.20;;;;;;;0.47;57.35;99441.97;7936296;28;20347;-65
2021/01/25 04:07:59;;;;;;;3.25;1.95;;;;;;;0.46;57.92;99448.06;7937442;28;20033;-67
2021/01/25 04:11:49;;;;;;;4.30;2.28;;;;;;;0.45;57.36;99436.06;7937962;28;20060;-65
2021/01/25 04:15:40;;;;;;;3.20;2.17;;;;;;;0.41;57.31;99436.25;7936942;28;20806;-64
2021/01/25 04:19:31;;;;;;;2.72;2.20;;;;;;;0.40;57.57;99448.34;7938006;28;20056;-65
2021/01/25 04:23:21;;;;;;;4.43;2.72;;;;;;;0.45;57.84;99453.28;7937418;28;20040;-67
2021/01/25 04:27:13;;;;;;;3.22;1.85;;;;;;;0.47;57.48;99454.03;7937364;28;20039;-66
2021/01/25 04:31:03;;;;;;;3.50;2.33;;;;;;;0.47;57.70;99459.22;7948382;28;20052;-67
2021/01/25 04:34:54;;;;;;;3.58;2.53;;;;;;;0.48;57.50;99459.16;7967403;28;20044;-65
2021/01/25 04:38:45;;;;;;;3.08;2.25;;;;;;;0.50;57.81;99459.09;7971350;28;20520;-65
2021/01/25 04:42:36;;;;;;;3.50;2.72;;;;;;;0.50;57.65;99459.09;8000266;28;20041;-66
2021/01/25 04:46:27;;;;;;;4.15;2.67;;;;;;;0.50;57.48;99462.53;8000184;28;20059;-65
2021/01/25 04:50:18;;;;;;;3.25;2.47;;;;;;;0.51;57.49;99464.16;8000738;28;20069;-65
2021/01/25 04:54:09;;;;;;;3.75;2.85;;;;;;;0.50;57.75;99472.00;7999506;28;20452;-64
2021/01/25 04:58:01;;;;;;;2.60;2.10;;;;;;;0.50;57.41;99472.84;8000301;28;20025;-65
2021/01/25 05:01:52;;;;;;;3.40;2.35;;;;;;;0.52;57.41;99477.94;7999875;28;20076;-66
2021/01/25 05:05:42;;;;;;;4.00;2.65;;;;;;;0.50;57.33;99477.19;8000278;28;20086;-64
2021/01/25 05:09:33;;;;;;;5.95;3.10;;;;;;;0.54;58.08;99484.72;8000810;28;20037;-67
2021/01/25 05:13:24;;;;;;;2.80;2.38;;;;;;;0.53;57.68;99488.19;7999950;28;20037;-64
2021/01/25 05:17:15;;;;;;;3.80;2.50;;;;;;;0.54;57.49;99491.63;7998654;28;20049;-65
2021/01/25 05:21:06;;;;;;;3.90;2.35;;;;;;;0.57;57.06;99499.22;8003188;28;20041;-64
2021/01/25 05:24:57;;;;;;;3.67;2.83;;;;;;;0.58;57.84;99501.75;8005643;28;20035;-65
2021/01/25 05:28:52;;;;;;;4.95;3.10;;;;;;;0.58;57.51;99506.94;8006092;28;20058;-65
2021/01/25 05:32:51;;;;;;;2.40;2.08;;;;;;;0.59;57.95;99510.31;7981779;28;20064;-65
2021/01/25 05:36:42;;;;;;;3.28;2.50;;;;;;;0.59;57.73;99513.75;7973914;28;20037;-66
2021/01/25 05:40:35;;;;;;;3.90;2.67;;;;;;;0.62;57.70;99517.94;7974179;28;20040;-65
2021/01/25 05:44:26;;;;;;;4.78;2.35;;;;;;;0.63;57.44;99519.63;7955652;28;20060;-64
2021/01/25 05:48:17;;;;;;;3.92;2.80;;;;;;;0.64;57.26;99520.44;7940324;28;20054;-66
2021/01/25 05:52:15;;;;;;;4.05;2.85;;;;;;;0.65;57.13;99522.97;7940146;28;20144;-65
2021/01/25 05:56:07;;;;;;;4.03;2.83;;;;;;;0.64;57.12;99529.03;7942490;28;20061;-65
2021/01/25 05:59:57;;;;;;;3.50;2.30;;;;;;;0.62;57.31;99528.28;7941917;28;20092;-65
2021/01/25 06:03:49;;;;;;;3.78;2.60;;;;;;;0.65;57.09;99535.06;7941061;28;20058;-64
2021/01/25 06:07:41;;;;;;;5.60;3.08;;;;;;;0.66;57.62;99544.50;7941397;28;20026;-64
2021/01/25 06:11:32;;;;;;;4.82;2.92;;;;;;;0.68;57.77;99532.31;7941482;28;20068;-65
2021/01/25 06:15:28;;;;;;;4.22;2.90;;;;;;;0.68;57.76;99546.09;7939322;28;20038;-66
2021/01/25 06:19:22;;;;;;;4.30;2.50;;;;;;;0.68;57.52;99547.81;7941951;28;20609;-65
2021/01/25 06:23:13;;;;;;;4.53;2.83;;;;;;;0.71;57.36;99558.88;7940430;28;20034;-64
2021/01/25 06:27:05;;;;;;;3.40;2.78;;;;;;;0.72;57.90;99570.88;7941191;28;20124;-64
2021/01/25 06:30:57;;;;;;;3.95;2.83;;;;;;;0.71;57.80;99568.38;7963397;28;20345;-64
2021/01/25 06:34:47;;;;;;;6.30;2.92;;;;;;;0.72;57.64;99580.38;8003499;28;20192;-64
2021/01/25 06:38:40;;;;;;;8.38;3.80;;;;;;;0.73;57.77;99579.47;8003665;28;20048;-63
2021/01/25 06:42:32;;;;;;;4.30;2.75;;;;;;;0.77;57.86;99593.94;8003633;28;20040;-64
2021/01/25 06:46:23;;;;;;;4.90;3.10;;;;;;;0.76;57.99;99598.25;8003138;28;20036;-64
2021/01/25 06:50:13;;;;;;;5.40;3.33;;;;;;;0.74;57.84;99594.94;8003996;28;20053;-63
2021/01/25 06:54:04;;;;;;;5.07;3.80;;;;;;;0.78;57.97;99614.56;8002961;28;20065;-63
2021/01/25 06:57:55;;;;;;;4.68;3.33;;;;;;;0.80;57.69;99625.66;8003161;28;20040;-64
2021/01/25 07:01:49;;;;;;;6.32;3.72;;;;;;;0.81;57.19;99637.69;8017760;28;20051;-64
2021/01/25 07:05:43;;;;;;;5.10;3.20;;;;;;;0.81;57.88;99642.00;8003090;28;20533;-64
2021/01/25 07:09:33;;;;;;;5.28;3.55;;;;;;;0.85;57.69;99652.13;8001955;28;20068;-63
2021/01/25 07:13:29;;;;;;;5.60;3.80;;;;;;;0.87;58.07;99659.88;8000977;28;20059;-64
2021/01/25 07:17:20;;;;;;;7.25;3.30;;;;;;;0.87;57.26;99659.88;8000751;28;20045;-65
2021/01/25 07:21:14;;;;;;;6.78;3.72;;;;;;;0.87;57.79;99668.47;8002515;28;20040;-64
2021/01/25 07:25:06;;;;;;;5.70;3.97;;;;;;;0.88;57.57;99670.13;8002802;28;20037;-63
2021/01/25 07:28:57;;;;;;;7.57;3.97;;;;;;;0.86;57.45;99684.88;8002654;28;20044;-64
2021/01/25 07:32:49;;;;;;;7.78;3.90;;;;;;;0.89;57.77;99689.06;7975325;28;20045;-63
2021/01/25 07:36:39;;;;;;;4.20;3.33;;;;;;;0.90;57.60;99701.09;7970392;28;20037;-63
2021/01/25 07:40:30;;;;;;;4.70;3.80;;;;;;;0.90;58.22;99698.50;7970431;28;20029;-63
2021/01/25 07:44:21;;;;;;;5.00;3.80;;;;;;;0.93;58.48;99709.56;7968658;28;20059;-63
2021/01/25 07:48:13;;;;;;;4.85;3.88;;;;;;;0.95;57.77;99710.34;7967416;28;20042;-65
2021/01/25 07:52:04;;;;;;;4.80;3.50;;;;;;;0.95;58.13;99718.09;7969936;28;20516;-64
2021/01/25 07:55:55;;;;;;;6.07;4.07;;;;;;;0.97;57.79;99729.19;7969772;28;20033;-64
2021/01/25 07:59:45;;;;;;;4.70;3.67;;;;;;;0.98;57.57;99732.63;7970027;28;20037;-65
2021/01/25 08:03:36;;;;;;;5.22;3.67;;;;;;;1.00;57.47;99747.16;7969398;28;20399;-63
2021/01/25 08:07:27;;;;;;;7.50;3.88;;;;;;;0.97;58.03;99736.94;7968564;28;20037;-63
2021/01/25 08:11:18;;;;;;;6.93;4.03;;;;;;;1.01;57.73;99750.56;7969788;28;20506;-64
2021/01/25 08:15:14;;;;;;;8.27;4.03;;;;;;;1.01;57.81;99759.19;7970111;28;20153;-64
2021/01/25 08:19:04;;;;;;;6.32;3.70;;;;;;;1.02;58.08;99760.88;7969227;28;20490;-64
2021/01/25 08:23:07;;;;;;;9.25;3.65;;;;;;;1.03;58.28;99767.72;7972873;28;20060;-64
2021/01/25 08:27:11;;;;;;;5.40;3.30;;;;;;;1.02;57.92;99785.88;8000972;28;20111;-64
2021/01/25 08:31:17;;;;;;;14.25;5.40;;;;;;;1.03;58.21;99792.75;7989105;28;20480;-64
2021/01/25 08:35:10;;;;;;;5.00;3.80;;;;;;;1.05;58.44;99805.63;7951703;28;20456;-64
2021/01/25 08:39:38;;;;;;;5.70;3.78;;;;;;;1.06;58.08;99805.53;7970113;28;20084;-64
2021/01/25 08:43:32;;;;;;;5.70;3.40;;;;;;;1.10;58.56;99820.00;7968096;28;20124;-64
2021/01/25 08:47:27;;;;;;;4.75;3.13;;;;;;;1.09;58.26;99818.31;7958839;28;20038;-63
2021/01/25 08:51:29;;;;;;;7.28;3.20;;;;;;;1.17;58.04;99830.94;7957458;28;20083;-65
2021/01/25 08:55:24;;;;;;;5.25;3.20;;;;;;;1.20;57.88;99839.41;7965807;28;20041;-64
2021/01/25 08:59:27;;;;;;;4.38;2.78;;;;;;;1.23;57.99;99841.84;7976127;28;20037;-64
2021/01/25 09:03:19;;;;;;;3.55;2.80;;;;;;;1.25;58.11;99840.03;7978700;28;20049;-66
2021/01/25 09:07:15;;;;;;;3.90;3.05;;;;;;;1.32;58.09;99856.13;7978485;28;20572;-66
2021/01/25 09:11:07;;;;;;;4.35;3.72;;;;;;;1.37;57.75;99854.19;7975168;28;20079;-64
2021/01/25 09:14:58;;;;;;;4.72;3.42;;;;;;;1.39;58.16;99857.53;7976772;28;20080;-63
2021/01/25 09:18:49;;;;;;;5.25;3.40;;;;;;;1.45;58.42;99878.84;7970267;28;20042;-64
2021/01/25 09:22:40;;;;;;;6.38;3.28;;;;;;;1.46;57.89;99877.91;7970348;28;20037;-65
2021/01/25 09:26:30;;;;;;;4.78;3.42;;;;;;;1.50;57.68;99887.22;7973801;28;20053;-64
2021/01/25 09:30:21;;;;;;;5.03;3.80;;;;;;;1.50;58.22;99891.56;7976458;28;20059;-64
2021/01/25 09:34:12;;;;;;;6.18;3.83;;;;;;;1.57;57.68;99892.13;7978265;28;20049;-63
2021/01/25 09:38:02;;;;;;;7.53;3.55;;;;;;;1.61;58.30;99901.44;7973652;28;20083;-65
2021/01/25 09:41:53;;;;;;;5.78;3.67;;;;;;;1.62;57.90;99901.38;7974616;28;20049;-63
2021/01/25 09:45:44;;;;;;;6.88;3.92;;;;;;;1.64;58.02;99903.88;7977212;28;20067;-65
2021/01/25 09:49:34;;;;;;;4.80;3.70;;;;;;;1.70;57.90;99920.00;7973453;28;20436;-62
2021/01/25 09:53:25;;;;;;;7.28;4.03;;;;;;;1.75;57.99;99932.75;7981233;28;20044;-65
2021/01/25 09:57:16;;;;;;;5.85;3.65;;;;;;;1.79;57.88;99944.66;7968713;28;20045;-62
2021/01/25 10:01:06;;;;;;;7.18;3.90;;;;;;;1.81;57.75;99956.63;7978010;28;20132;-65
2021/01/25 10:04:57;;;;;;;6.10;3.42;;;;;;;1.87;57.73;99960.69;7976075;28;20114;-65
2021/01/25 10:08:48;;;;;;;5.70;3.78;;;;;;;1.94;57.71;99964.69;7974171;28;20045;-64
2021/01/25 10:12:39;;;;;;;6.53;4.25;;;;;;;1.99;58.04;99978.28;7965311;28;20416;-65
2021/01/25 10:16:29;;;;;;;4.93;3.50;;;;;;;2.04;58.29;99973.69;7976513;28;20047;-64
2021/01/25 10:20:20;;;;;;;5.13;3.22;;;;;;;2.08;57.82;99974.44;7974749;28;20071;-64
2021/01/25 10:24:10;;;;;;;4.50;3.25;;;;;;;2.11;57.61;99982.06;7979508;28;20047;-65
2021/01/25 10:28:01;;;;;;;7.20;4.00;;;;;;;2.24;58.17;99993.56;7970019;28;20152;-65
2021/01/25 10:31:52;;;;;;;5.78;3.75;;;;;;;2.37;58.03;99999.88;7973055;28;20053;-65
2021/01/25 10:35:43;;;;;;;4.53;3.17;;;;;;;2.52;58.12;100008.66;7976713;28;20405;-66
2021/01/25 10:39:33;;;;;;;9.88;4.28;;;;;;;2.64;57.84;100010.69;7975204;28;20053;-63
2021/01/25 10:43:24;;;;;;;6.30;3.47;;;;;;;2.75;58.14;100011.84;7976829;28;20055;-65
2021/01/25 10:47:18;;;;;;;7.85;3.70;;;;;;;2.81;58.27;100018.53;7972985;28;20067;-63
2021/01/25 10:51:09;;;;;;;5.63;3.72;;;;;;;2.82;57.84;100023.66;7975220;28;20048;-64
2021/01/25 10:55:00;;;;;;;6.38;3.42;;;;;;;2.82;57.59;100038.38;7977126;28;20046;-64
2021/01/25 10:58:50;;;;;;;6.00;3.80;;;;;;;2.78;57.93;100034.22;7969695;28;20615;-64
2021/01/25 11:02:41;;;;;;;6.57;3.58;;;;;;;2.72;57.82;100039.69;7972489;28;20041;-64
2021/01/25 11:06:32;;;;;;;5.55;4.10;;;;;;;2.66;57.12;100047.78;7977457;28;20025;-62
2021/01/25 11:10:26;;;;;;;8.85;3.97;;;;;;;2.61;57.15;100054.91;7975389;28;20078;-65
2021/01/25 11:14:17;;;;;;;5.40;3.88;;;;;;;2.56;57.21;100056.88;7974358;28;20501;-63
2021/01/25 11:18:08;;;;;;;6.90;4.18;;;;;;;2.53;57.00;100064.81;7969322;28;20166;-64
2021/01/25 11:21:58;;;;;;;8.38;3.70;;;;;;;2.49;57.26;100071.88;7971162;28;20041;-64
2021/01/25 11:25:49;;;;;;;8.82;4.05;;;;;;;2.47;57.15;100078.88;7964742;28;20040;-64
2021/01/25 11:29:39;;;;;;;5.18;3.75;;;;;;;2.50;57.51;100096.03;7967145;28;21024;-64
2021/01/25 11:33:30;;;;;;;6.90;3.45;;;;;;;2.54;57.83;100095.81;7961109;28;20045;-66
2021/01/25 11:37:20;;;;;;;5.57;3.70;;;;;;;2.61;57.29;100099.00;7962648;28;20025;-65
2021/01/25 11:41:11;;;;;;;5.25;3.35;;;;;;;2.67;57.84;100106.47;7965087;28;20049;-64
2021/01/25 11:45:04;;;;;;;8.30;3.28;;;;;;;2.75;57.33;100101.78;7965179;28;20044;-65
2021/01/25 11:48:55;;;;;;;7.45;3.95;;;;;;;2.79;56.96;100103.34;7963867;28;20056;-64
2021/01/25 11:52:46;;;;;;;6.07;3.80;;;;;;;2.82;57.42;100114.44;7961278;28;20033;-64
2021/01/25 11:56:37;;;;;;;4.80;3.65;;;;;;;2.85;57.47;100114.28;7963105;28;20049;-65
2021/01/25 12:00:28;;;;;;;6.93;4.50;;;;;;;2.90;57.18;100119.25;7961627;28;20056;-64
2021/01/25 12:04:19;;;;;;;7.30;3.92;;;;;;;2.86;57.26;100109.94;7962436;28;20045;-65
2021/01/25 12:08:11;;;;;;;7.80;4.45;;;;;;;2.99;57.28;100120.59;7965018;28;20697;-65
2021/01/25 12:12:01;;;;;;;6.82;4.45;;;;;;;3.07;56.59;100126.25;7967127;28;20037;-65
2021/01/25 12:15:52;;;;;;;8.77;4.40;;;;;;;3.13;57.15;100131.16;7961282;28;20716;-65
2021/01/25 12:19:42;;;;;;;8.95;4.60;;;;;;;3.18;56.75;100124.00;7957336;28;20119;-66
2021/01/25 12:23:34;;;;;;;6.63;4.00;;;;;;;3.19;56.85;100129.13;7960951;28;20029;-63
2021/01/25 12:27:25;;;;;;;10.23;4.60;;;;;;;3.28;56.65;100135.63;7961165;28;20052;-63
2021/01/25 12:31:15;;;;;;;6.60;5.03;;;;;;;3.29;56.75;100138.19;7957225;28;20037;-62
2021/01/25 12:35:06;;;;;;;6.90;5.03;;;;;;;3.30;56.82;100149.41;7966308;28;20041;-64
2021/01/25 12:38:57;;;;;;;10.15;4.95;;;;;;;3.28;56.30;100159.00;7964845;28;20047;-63
2021/01/25 12:42:48;;;;;;;7.65;4.57;;;;;;;3.24;56.08;100157.47;7963759;28;20029;-64
2021/01/25 12:46:39;;;;;;;6.00;4.03;;;;;;;3.19;56.01;100160.28;7962574;28;20049;-65
2021/01/25 12:50:29;;;;;;;8.55;4.70;;;;;;;3.18;55.99;100165.53;7960627;28;20033;-64
2021/01/25 12:54:21;;;;;;;8.90;5.30;;;;;;;3.17;56.10;100163.84;7960123;28;20049;-64
2021/01/25 12:58:11;;;;;;;9.02;4.80;;;;;;;3.13;56.28;100162.28;7959353;28;20051;-65
2021/01/25 13:02:02;;;;;;;5.38;4.05;;;;;;;3.09;56.15;100173.72;7965289;28;20037;-63
2021/01/25 13:05:53;;;;;;;9.23;4.40;;;;;;;3.02;56.18;100175.78;7967683;28;20037;-63
2021/01/25 13:09:43;;;;;;;9.98;4.57;;;;;;;2.97;55.65;100179.47;7962306;28;20402;-65
2021/01/25 13:13:34;;;;;;;6.28;4.30;;;;;;;2.85;56.05;100186.91;7959808;28;20110;-65
2021/01/25 13:17:24;;;;;;;6.80;4.10;;;;;;;2.79;55.96;100188.94;7959732;28;20046;-65
2021/01/25 13:21:15;;;;;;;7.60;4.03;;;;;;;2.76;55.63;100189.06;7966698;28;20036;-62
2021/01/25 13:25:06;;;;;;;7.47;3.90;;;;;;;2.69;56.00;100193.69;7962225;28;20561;-65
2021/01/25 13:28:57;;;;;;;5.70;3.95;;;;;;;2.65;55.87;100196.50;7962818;28;20037;-63
2021/01/25 13:32:48;;;;;;;6.38;4.20;;;;;;;2.60;55.80;100198.44;7982709;28;20044;-62
2021/01/25 13:36:38;;;;;;;7.43;4.18;;;;;;;2.55;55.78;100201.22;7956207;28;20577;-65
2021/01/25 13:40:30;;;;;;;6.88;3.90;;;;;;;2.54;55.45;100209.91;7960362;28;20033;-65
2021/01/25 13:44:21;;;;;;;5.90;3.47;;;;;;;2.51;55.36;100215.25;7965580;28;20033;-63
2021/01/25 13:48:13;;;;;;;6.75;4.57;;;;;;;2.46;55.62;100224.97;7964581;28;20043;-65
2021/01/25 13:52:03;;;;;;;6.00;4.18;;;;;;;2.43;55.80;100214.72;7966772;28;20610;-65
2021/01/25 13:55:55;;;;;;;6.88;4.53;;;;;;;2.43;56.01;100225.94;7974024;28;20518;-65
2021/01/25 13:59:46;;;;;;;6.15;3.83;;;;;;;2.42;55.58;100233.78;7967948;28;20051;-65
2021/01/25 14:03:37;;;;;;;10.50;3.95;;;;;;;2.38;55.79;100230.47;7964889;28;20041;-65
2021/01/25 14:07:27;;;;;;;12.93;4.45;;;;;;;2.38;55.75;100234.81;7969463;28;20033;-64
2021/01/25 14:11:18;;;;;;;5.22;3.63;;;;;;;2.31;55.83;100223.88;7969313;28;20051;-64
2021/01/25 14:15:09;;;;;;;12.23;4.95;;;;;;;2.35;55.39;100242.72;7974440;28;20045;-63
2021/01/25 14:19:00;;;;;;;10.20;4.45;;;;;;;2.30;55.25;100234.28;7969677;28;20448;-62
2021/01/25 14:22:51;;;;;;;8.20;4.70;;;;;;;2.33;55.61;100247.13;7967709;28;20094;-64
2021/01/25 14:26:41;;;;;;;9.98;5.43;;;;;;;2.31;55.60;100261.91;7967720;28;20033;-63
2021/01/25 14:30:33;;;;;;;10.10;6.05;;;;;;;2.31;55.68;100264.50;7971234;28;20037;-64
2021/01/25 14:34:27;;;;;;;8.18;4.82;;;;;;;2.29;55.55;100277.50;7986664;28;20043;-64
2021/01/25 14:38:18;;;;;;;8.57;5.28;;;;;;;2.28;55.54;100275.00;7988093;28;20033;-62
2021/01/25 14:42:08;;;;;;;7.50;5.25;;;;;;;2.25;55.52;100281.13;7970371;28;20037;-64
2021/01/25 14:45:59;;;;;;;7.72;4.75;;;;;;;2.27;55.61;100289.69;7965545;28;20045;-64
2021/01/25 14:49:50;;;;;;;7.78;4.72;;;;;;;2.26;55.99;100295.78;7970028;28;20033;-63
2021/01/25 14:53:40;;;;;;;8.30;4.22;;;;;;;2.23;56.01;100310.63;7968119;28;20104;-63
2021/01/25 14:57:31;;;;;;;6.93;4.55;;;;;;;2.20;55.98;100311.59;7966912;28;20037;-65
2021/01/25 15:01:23;;;;;;;8.90;3.80;;;;;;;2.18;55.85;100321.16;7969972;28;20048;-63
2021/01/25 15:05:17;;;;;;;5.32;3.90;;;;;;;2.16;55.76;100328.19;7979245;28;20071;-63
2021/01/25 15:09:08;;;;;;;7.47;3.97;;;;;;;2.15;55.31;100331.66;7973057;28;20033;-65
2021/01/25 15:12:59;;;;;;;6.57;3.78;;;;;;;2.14;55.69;100331.72;7975585;28;20037;-65
2021/01/25 15:16:49;;;;;;;6.15;3.80;;;;;;;2.15;55.37;100344.63;7963063;28;20069;-64
2021/01/25 15:20:40;;;;;;;5.05;3.75;;;;;;;2.14;55.51;100350.69;7966466;28;20650;-65
2021/01/25 15:24:31;;;;;;;4.80;3.85;;;;;;;2.12;55.27;100359.44;7975983;28;20037;-65
2021/01/25 15:28:21;;;;;;;5.63;3.83;;;;;;;2.12;55.55;100362.88;7974611;28;20045;-64
2021/01/25 15:32:12;;;;;;;5.78;3.78;;;;;;;2.10;55.25;100382.81;7966457;28;20049;-63
2021/01/25 15:36:02;;;;;;;6.95;4.10;;;;;;;2.08;55.18;100382.00;7964184;28;20048;-65
2021/01/25 15:39:53;;;;;;;4.47;3.40;;;;;;;2.07;55.41;100384.69;7966369;28;20033;-64
2021/01/25 15:43:44;;;;;;;6.47;4.28;;;;;;;2.05;55.94;100392.50;7962747;28;20485;-63
2021/01/25 15:47:34;;;;;;;5.63;3.63;;;;;;;2.01;55.44;100388.34;7962272;28;20041;-62
2021/01/25 15:51:25;;;;;;;6.22;3.75;;;;;;;2.02;55.65;100397.81;7962904;28;20992;-63
2021/01/25 15:55:18;;;;;;;4.68;3.90;;;;;;;1.99;55.26;100399.69;7964728;28;20041;-64
2021/01/25 15:59:09;;;;;;;6.60;4.55;;;;;;;1.97;55.42;100399.72;7982673;28;20048;-64
2021/01/25 16:03:00;;;;;;;9.07;5.97;;;;;;;1.92;55.30;100397.31;7964542;28;20456;-64
2021/01/25 16:06:51;;;;;;;8.57;4.63;;;;;;;1.88;55.19;100408.69;7964443;28;20650;-65
2021/01/25 16:10:42;;;;;;;6.18;4.40;;;;;;;1.82;55.71;100424.47;7968653;28;20033;-64
2021/01/25 16:14:33;;;;;;;6.68;4.57;;;;;;;1.75;55.08;100419.59;7962545;28;20044;-64
2021/01/25 16:18:23;;;;;;;7.18;4.80;;;;;;;1.72;55.04;100427.44;7964052;28;20061;-62
2021/01/25 16:22:14;;;;;;;11.73;5.70;;;;;;;1.67;55.08;100439.69;7960527;28;20045;-62
2021/01/25 16:26:06;;;;;;;11.13;5.85;;;;;;;1.61;54.83;100447.72;7963100;28;20402;-63
2021/01/25 16:29:58;;;;;;;10.45;6.65;;;;;;;1.56;54.76;100457.38;7962998;28;20671;-65
2021/01/25 16:33:49;;;;;;;9.43;6.40;;;;;;;1.49;54.95;100460.19;7974722;28;20058;-63
2021/01/25 16:37:39;;;;;;;12.23;6.30;;;;;;;1.44;54.99;100462.09;7961054;28;20690;-66
2021/01/25 16:41:30;;;;;;;9.98;6.22;;;;;;;1.38;55.25;100461.44;7958056;28;20111;-62
2021/01/25 16:45:20;;;;;;;10.55;6.82;;;;;;;1.31;55.14;100452.22;7961286;28;20456;-64
2021/01/25 16:49:13;;;;;;;10.75;7.38;;;;;;;1.28;55.05;100458.34;7967053;28;20051;-62
2021/01/25 16:53:03;;;;;;;16.13;8.50;;;;;;;1.22;55.24;100471.47;7962228;28;20040;-66
2021/01/25 16:56:54;;;;;;;14.18;8.45;;;;;;;1.19;55.46;100473.34;7969888;28;20038;-65
2021/01/25 17:00:46;;;;;;;16.60;9.02;;;;;;;1.17;55.20;100480.31;7963061;28;20037;-64
2021/01/25 17:04:37;;;;;;;15.65;9.18;;;;;;;1.14;55.63;100486.41;7972625;28;20056;-64
2021/01/25 17:08:28;;;;;;;13.55;9.10;;;;;;;1.10;55.05;100504.69;7963829;28;20037;-64
2021/01/25 17:12:18;;;;;;;15.13;9.38;;;;;;;1.02;55.49;100499.75;7986728;28;20045;-64
2021/01/25 17:16:09;;;;;;;13.90;9.18;;;;;;;1.02;55.21;100504.94;7973812;28;20406;-63
2021/01/25 17:19:59;;;;;;;16.23;9.75;;;;;;;1.00;54.96;100514.50;7978542;28;20048;-63
2021/01/25 17:23:50;;;;;;;16.20;9.07;;;;;;;1.01;55.73;100521.34;7961762;28;20052;-63
2021/01/25 17:27:41;;;;;;;21.58;9.95;;;;;;;1.02;55.79;100513.53;7968093;28;20038;-66
2021/01/25 17:31:31;;;;;;;14.57;8.70;;;;;;;1.02;55.45;100520.47;7960553;28;20041;-66
2021/01/25 17:35:22;;;;;;;15.18;9.65;;;;;;;1.00;55.70;100522.25;7964789;28;20038;-61
2021/01/25 17:39:13;;;;;;;14.80;9.15;;;;;;;0.96;56.21;100521.47;7969193;28;20029;-65
2021/01/25 17:43:03;;;;;;;13.38;8.88;;;;;;;0.96;55.75;100523.25;7982535;28;20164;-62
2021/01/25 17:46:54;;;;;;;12.63;9.18;;;;;;;0.93;55.64;100538.84;7961228;28;20685;-65
2021/01/25 17:50:45;;;;;;;12.77;8.68;;;;;;;0.90;55.63;100534.63;7964362;28;20041;-64
2021/01/25 17:54:39;;;;;;;14.50;8.20;;;;;;;0.90;55.97;100536.38;7964490;28;20077;-64
2021/01/25 17:58:31;;;;;;;13.48;8.85;;;;;;;0.88;55.86;100531.22;7966290;28;20695;-66
2021/01/25 18:02:22;;;;;;;16.05;9.15;;;;;;;0.89;55.64;100535.50;7967201;28;20046;-66
2021/01/25 18:06:13;;;;;;;14.45;8.73;;;;;;;0.85;55.58;100536.47;7971469;28;21352;-69
2021/01/25 18:10:05;;;;;;;16.65;8.95;;;;;;;0.90;56.19;100542.38;7964287;28;21338;-67
2021/01/25 18:13:55;;;;;;;14.80;9.25;;;;;;;0.90;56.17;100549.28;7965502;28;21390;-66